createdAt,value
2019-06-23T00:01:38.517Z,6.70
2019-06-23T00:04:07.669Z,7.83
2019-06-23T00:06:36.795Z,6.80
2019-06-23T00:09:06.535Z,7.33
2019-06-23T00:11:35.684Z,6.93
2019-06-23T00:14:04.845Z,7.70
2019-06-23T00:16:34.073Z,7.40
2019-06-23T00:19:03.242Z,7.00
2019-06-23T00:21:32.381Z,7.97
2019-06-23T00:24:01.540Z,7.63
2019-06-23T00:26:30.665Z,8.27
2019-06-23T00:28:59.860Z,7.60
2019-06-23T00:31:57.461Z,7.87
2019-06-23T00:34:26.691Z,8.40
2019-06-23T00:36:55.846Z,8.50
2019-06-23T00:39:25.039Z,8.17
2019-06-23T00:41:54.190Z,8.10
2019-06-23T00:44:23.380Z,8.40
2019-06-23T00:46:52.554Z,8.23
2019-06-23T00:49:21.764Z,7.47
2019-06-23T00:51:51.131Z,7.80
2019-06-23T00:54:20.276Z,8.23
2019-06-23T00:56:49.729Z,9.13
2019-06-23T00:59:18.884Z,8.70
2019-06-23T01:01:57.990Z,8.00
2019-06-23T01:04:27.609Z,8.27
2019-06-23T01:06:56.756Z,8.83
2019-06-23T01:09:25.907Z,8.40
2019-06-23T01:11:55.187Z,7.47
2019-06-23T01:14:26.228Z,8.97
2019-06-23T01:16:57.433Z,9.57
2019-06-23T01:19:28.635Z,7.57
2019-06-23T01:21:58.019Z,8.27
2019-06-23T01:24:27.219Z,9.30
2019-06-23T01:26:56.481Z,9.50
2019-06-23T01:29:25.614Z,8.47
2019-06-23T01:31:54.833Z,8.30
2019-06-23T01:34:25.221Z,8.80
2019-06-23T01:36:54.662Z,9.37
2019-06-23T01:39:23.982Z,8.93
2019-06-23T01:41:53.142Z,8.20
2019-06-23T01:44:22.291Z,9.17
2019-06-23T01:46:51.445Z,9.30
2019-06-23T01:49:20.578Z,8.17
2019-06-23T01:51:49.821Z,9.23
2019-06-23T01:54:19.083Z,9.10
2019-06-23T01:56:48.301Z,8.40
2019-06-23T01:59:17.453Z,8.50
2019-06-23T02:01:46.556Z,9.47
2019-06-23T02:04:15.764Z,9.87
2019-06-23T02:06:44.939Z,9.03
2019-06-23T02:09:14.061Z,9.77
2019-06-23T02:11:43.242Z,9.93
2019-06-23T02:14:12.431Z,10.60
2019-06-23T02:16:41.851Z,10.30
2019-06-23T02:19:11.002Z,10.00
2019-06-23T02:21:59.225Z,10.03
2019-06-23T02:24:28.688Z,10.53
2019-06-23T02:26:59.310Z,10.27
2019-06-23T02:29:28.530Z,12.33
2019-06-23T02:31:57.717Z,11.90
2019-06-23T02:34:26.933Z,11.53
2019-06-23T02:36:56.206Z,12.00
2019-06-23T02:39:25.370Z,11.80
2019-06-23T02:41:54.608Z,12.40
2019-06-23T02:44:23.723Z,12.73
2019-06-23T02:46:58.985Z,12.80
2019-06-23T02:49:30.090Z,14.47
2019-06-23T02:52:05.165Z,12.67
2019-06-23T02:54:43.370Z,12.90
2019-06-23T02:57:19.994Z,13.53
2019-06-23T02:59:49.118Z,13.63
2019-06-23T03:02:18.442Z,13.47
2019-06-23T03:04:47.667Z,13.70
2019-06-23T03:07:16.820Z,14.30
2019-06-23T03:09:46.028Z,13.67
2019-06-23T03:12:15.183Z,12.23
2019-06-23T03:14:44.429Z,14.70
2019-06-23T03:17:13.568Z,15.33
2019-06-23T03:19:42.713Z,14.23
2019-06-23T03:22:11.840Z,14.17
2019-06-23T03:24:41.016Z,15.00
2019-06-23T03:27:10.150Z,14.40
2019-06-23T03:29:39.428Z,14.60
2019-06-23T03:32:08.543Z,14.47
2019-06-23T03:34:37.690Z,14.50
2019-06-23T03:37:07.457Z,13.40
2019-06-23T03:39:37.645Z,13.93
2019-06-23T03:42:06.950Z,14.23
2019-06-23T03:44:36.131Z,14.00
2019-06-23T03:47:05.283Z,13.90
2019-06-23T03:49:34.443Z,13.10
2019-06-23T03:52:03.666Z,12.87
2019-06-23T03:54:32.812Z,13.40
2019-06-23T03:57:02.019Z,14.70
2019-06-23T03:59:31.238Z,14.67
2019-06-23T04:02:00.391Z,14.07
2019-06-23T04:04:29.566Z,14.57
2019-06-23T04:06:58.688Z,14.27
2019-06-23T04:09:27.896Z,15.63
2019-06-23T04:11:57.092Z,15.53
2019-06-23T04:14:26.260Z,15.77
2019-06-23T04:16:55.444Z,16.40
2019-06-23T04:19:24.715Z,15.70
2019-06-23T04:21:54.049Z,16.20
2019-06-23T04:24:23.320Z,15.53
2019-06-23T04:26:52.445Z,16.27
2019-06-23T04:29:21.582Z,16.17
2019-06-23T04:31:50.804Z,14.57
2019-06-23T04:34:20.041Z,14.83
2019-06-23T04:36:49.200Z,15.03
2019-06-23T04:39:18.336Z,15.27
2019-06-23T04:41:47.496Z,16.53
2019-06-23T04:44:16.661Z,14.70
2019-06-23T04:46:45.887Z,17.60
2019-06-23T04:49:15.137Z,16.20
2019-06-23T04:51:44.335Z,15.63
2019-06-23T04:54:13.995Z,15.97
2019-06-23T04:56:43.180Z,15.37
2019-06-23T04:59:12.363Z,14.37
2019-06-23T05:01:41.513Z,12.87
2019-06-23T05:04:10.925Z,13.70
2019-06-23T05:06:40.281Z,13.50
2019-06-23T05:09:09.492Z,13.30
2019-06-23T05:11:38.657Z,14.20
2019-06-23T05:14:07.785Z,14.43
2019-06-23T05:16:36.962Z,12.57
2019-06-23T05:19:06.105Z,12.53
2019-06-23T05:21:35.356Z,11.90
2019-06-23T05:24:04.529Z,10.83
2019-06-23T05:26:33.679Z,10.27
2019-06-23T05:29:02.864Z,10.90
2019-06-23T05:31:32.173Z,11.55
2019-06-23T05:34:01.417Z,9.93
2019-06-23T05:36:39.946Z,11.30
2019-06-23T05:39:01.630Z,11.70
2019-06-23T05:41:30.782Z,8.97
2019-06-23T05:43:59.973Z,7.07
2019-06-23T05:46:29.177Z,7.33
2019-06-23T05:48:58.296Z,7.30
2019-06-23T05:51:27.473Z,6.60
2019-06-23T05:53:56.698Z,5.20
2019-06-23T05:56:25.988Z,7.50
2019-06-23T05:58:55.238Z,5.90
2019-06-23T06:01:24.365Z,5.37
2019-06-23T06:03:53.509Z,4.47
2019-06-23T06:06:22.623Z,4.70
2019-06-23T06:08:51.924Z,4.43
2019-06-23T06:11:21.062Z,5.10
2019-06-23T06:13:50.184Z,5.00
2019-06-23T06:16:19.325Z,4.20
2019-06-23T06:18:48.502Z,3.60
2019-06-23T06:21:17.652Z,4.30
2019-06-23T06:23:46.889Z,3.53
2019-06-23T06:26:16.032Z,3.43
2019-06-23T06:28:45.270Z,3.83
2019-06-23T06:31:14.423Z,3.93
2019-06-23T06:33:43.690Z,3.20
2019-06-23T06:36:12.865Z,3.20
2019-06-23T06:38:42.072Z,2.43
2019-06-23T06:41:11.240Z,2.47
2019-06-23T06:43:40.350Z,3.03
2019-06-23T06:46:09.596Z,3.03
2019-06-23T06:48:38.713Z,2.50
2019-06-23T06:51:07.984Z,2.63
2019-06-23T06:53:37.128Z,3.00
2019-06-23T06:56:06.343Z,1.90
2019-06-23T06:58:35.461Z,2.30
2019-06-23T07:01:04.671Z,2.50
2019-06-23T07:03:52.874Z,2.70
2019-06-23T07:06:22.015Z,2.63
2019-06-23T07:08:52.676Z,2.10
2019-06-23T07:11:21.821Z,1.97
2019-06-23T07:13:51.011Z,1.80
2019-06-23T07:16:20.186Z,2.57
2019-06-23T07:18:49.334Z,2.40
2019-06-23T07:21:18.505Z,2.50
2019-06-23T07:23:47.709Z,2.40
2019-06-23T07:26:16.849Z,2.10
2019-06-23T07:28:46.031Z,2.30
2019-06-23T07:31:51.443Z,2.50
2019-06-23T07:34:20.597Z,3.30
2019-06-23T07:36:49.793Z,2.37
2019-06-23T07:39:18.942Z,3.60
2019-06-23T07:41:48.367Z,3.10
2019-06-23T07:44:17.664Z,1.83
2019-06-23T07:46:46.912Z,2.47
2019-06-23T07:49:16.032Z,1.60
2019-06-23T07:51:45.179Z,1.70
2019-06-23T07:54:14.594Z,1.97
2019-06-23T07:56:43.800Z,1.93
2019-06-23T07:59:12.965Z,2.17
2019-06-23T08:01:42.208Z,1.97
2019-06-23T08:04:11.350Z,1.83
2019-06-23T08:06:41.374Z,1.90
2019-06-23T08:09:10.540Z,1.70
2019-06-23T08:11:39.748Z,1.73
2019-06-23T08:14:08.940Z,1.50
2019-06-23T08:16:38.088Z,1.80
2019-06-23T08:19:07.240Z,1.83
2019-06-23T08:21:36.475Z,1.60
2019-06-23T08:24:05.668Z,1.70
2019-06-23T08:26:34.839Z,1.80
2019-06-23T08:29:05.052Z,1.30
2019-06-23T08:31:34.258Z,1.37
2019-06-23T08:34:03.485Z,1.27
2019-06-23T08:36:32.737Z,1.50
2019-06-23T08:39:01.982Z,1.40
2019-06-23T08:41:31.262Z,1.30
2019-06-23T08:44:00.387Z,1.50
2019-06-23T08:46:29.655Z,1.40
2019-06-23T08:48:58.817Z,1.30
2019-06-23T08:51:29.106Z,1.40
2019-06-23T08:53:58.336Z,1.20
2019-06-23T08:56:27.633Z,1.57
2019-06-23T08:58:56.735Z,1.50
2019-06-23T09:01:26.058Z,1.60
2019-06-23T09:03:55.309Z,1.60
2019-06-23T09:06:24.556Z,1.20
2019-06-23T09:08:53.814Z,2.40
2019-06-23T09:11:22.999Z,2.10
2019-06-23T09:13:52.134Z,1.50
2019-06-23T09:16:21.579Z,1.50
2019-06-23T09:18:50.721Z,1.93
2019-06-23T09:21:19.909Z,1.50
2019-06-23T09:23:49.143Z,1.87
2019-06-23T09:26:18.373Z,1.77
2019-06-23T09:28:47.613Z,1.80
2019-06-23T09:31:16.752Z,1.53
2019-06-23T09:33:47.016Z,1.60
2019-06-23T09:36:16.153Z,1.30
2019-06-23T09:38:48.272Z,2.27
2019-06-23T09:41:16.192Z,1.93
2019-06-23T09:43:45.384Z,2.60
2019-06-23T09:46:14.525Z,1.90
2019-06-23T09:48:43.768Z,2.07
2019-06-23T09:51:12.999Z,2.40
2019-06-23T09:53:42.147Z,2.30
2019-06-23T09:56:11.395Z,2.43
2019-06-23T09:58:40.556Z,1.83
2019-06-23T10:01:09.775Z,2.50
2019-06-23T10:03:39.154Z,2.43
2019-06-23T10:06:08.307Z,2.23
2019-06-23T10:08:37.550Z,2.50
2019-06-23T10:11:06.787Z,2.13
2019-06-23T10:13:35.895Z,2.60
2019-06-23T10:16:05.100Z,2.20
2019-06-23T10:18:34.291Z,4.90
2019-06-23T10:21:03.481Z,3.27
2019-06-23T10:23:32.647Z,2.50
2019-06-23T10:26:01.939Z,3.00
2019-06-23T10:28:31.097Z,2.93
2019-06-23T10:31:00.239Z,2.73
2019-06-23T10:33:29.401Z,3.00
2019-06-23T10:35:58.629Z,2.80
2019-06-23T10:38:27.832Z,2.87
2019-06-23T10:40:57.099Z,3.10
2019-06-23T10:43:26.264Z,2.90
2019-06-23T10:45:55.508Z,3.00
2019-06-23T10:48:24.757Z,3.10
2019-06-23T10:50:54.009Z,3.00
2019-06-23T10:53:23.143Z,3.17
2019-06-23T10:55:52.330Z,3.10
2019-06-23T10:58:21.551Z,2.93
2019-06-23T11:00:50.789Z,2.60
2019-06-23T11:03:22.855Z,3.03
2019-06-23T11:05:53.125Z,2.70
2019-06-23T11:08:22.245Z,2.97
2019-06-23T11:10:51.538Z,3.67
2019-06-23T11:13:20.692Z,4.40
2019-06-23T11:15:49.928Z,3.47
2019-06-23T11:18:19.323Z,3.60
2019-06-23T11:20:48.492Z,3.90
2019-06-23T11:23:17.796Z,3.77
2019-06-23T11:25:47.118Z,4.03
2019-06-23T11:28:16.346Z,3.90
2019-06-23T11:30:45.730Z,3.03
2019-06-23T11:33:14.879Z,3.27
2019-06-23T11:35:44.196Z,4.53
2019-06-23T11:38:13.344Z,4.37
2019-06-23T11:40:42.641Z,3.30
2019-06-23T11:43:11.874Z,3.30
2019-06-23T11:45:41.090Z,3.00
2019-06-23T11:48:10.327Z,3.30
2019-06-23T11:50:39.497Z,2.97
2019-06-23T11:53:08.666Z,2.97
2019-06-23T11:55:37.892Z,3.53
2019-06-23T11:58:07.117Z,3.03
2019-06-23T12:00:36.287Z,2.80
2019-06-23T12:03:05.729Z,2.60
2019-06-23T12:05:34.884Z,5.20
2019-06-23T12:08:04.072Z,3.23
2019-06-23T12:10:33.286Z,3.40
2019-06-23T12:13:02.465Z,3.03
2019-06-23T12:15:31.779Z,3.00
2019-06-23T12:18:00.946Z,3.60
2019-06-23T12:20:30.203Z,2.77
2019-06-23T12:22:59.499Z,2.63
2019-06-23T12:25:28.700Z,2.87
2019-06-23T12:27:57.883Z,2.90
2019-06-23T12:30:27.111Z,3.23
2019-06-23T12:32:56.273Z,3.80
2019-06-23T12:35:27.626Z,2.80
2019-06-23T12:37:56.484Z,3.23
2019-06-23T12:40:25.808Z,3.03
2019-06-23T12:42:55.106Z,3.13
2019-06-23T12:45:24.329Z,4.00
2019-06-23T12:47:53.506Z,3.10
2019-06-23T12:50:22.641Z,2.63
2019-06-23T12:52:53.604Z,3.63
2019-06-23T12:55:22.848Z,2.80
2019-06-23T12:57:52.115Z,3.10
2019-06-23T13:00:21.393Z,3.57
2019-06-23T13:02:50.682Z,3.70
2019-06-23T13:05:20.087Z,3.17
2019-06-23T13:07:49.342Z,3.27
2019-06-23T13:10:18.547Z,3.00
2019-06-23T13:12:47.735Z,3.30
2019-06-23T13:15:17.090Z,4.20
2019-06-23T13:17:46.382Z,3.97
2019-06-23T13:20:15.867Z,4.53
2019-06-23T13:22:45.033Z,4.33
2019-06-23T13:25:14.331Z,3.40
2019-06-23T13:27:43.688Z,4.10
2019-06-23T13:30:14.697Z,3.90
2019-06-23T13:32:43.849Z,4.23
2019-06-23T13:35:13.024Z,3.77
2019-06-23T13:37:42.168Z,3.43
2019-06-23T13:40:11.665Z,3.30
2019-06-23T13:42:40.919Z,3.10
2019-06-23T13:45:10.553Z,3.03
2019-06-23T13:47:39.696Z,3.43
2019-06-23T13:50:09.156Z,3.90
2019-06-23T13:52:38.295Z,3.50
2019-06-23T13:55:07.784Z,3.50
2019-06-23T13:57:36.940Z,3.30
2019-06-23T14:00:07.327Z,3.77
2019-06-23T14:02:36.481Z,3.00
2019-06-23T14:05:07.580Z,3.23
2019-06-23T14:07:36.709Z,3.20
2019-06-23T14:10:06.929Z,3.80
2019-06-23T14:12:36.196Z,3.60
2019-06-23T14:15:07.854Z,3.20
2019-06-23T14:17:37.119Z,3.37
2019-06-23T14:20:07.159Z,3.83
2019-06-23T14:22:36.332Z,3.73
2019-06-23T14:25:06.656Z,3.40
2019-06-23T14:27:35.855Z,3.57
2019-06-23T14:30:06.241Z,3.67
2019-06-23T14:32:35.456Z,3.83
2019-06-23T14:35:05.050Z,3.90
2019-06-23T14:37:34.305Z,3.80
2019-06-23T14:40:03.505Z,3.80
2019-06-23T14:42:32.675Z,3.33
2019-06-23T14:45:01.857Z,3.80
2019-06-23T14:47:31.209Z,4.00
2019-06-23T14:50:00.353Z,3.87
2019-06-23T14:52:29.500Z,4.20
2019-06-23T14:54:58.652Z,3.67
2019-06-23T14:57:27.824Z,4.50
2019-06-23T14:59:56.989Z,4.00
2019-06-23T15:02:26.181Z,3.60
2019-06-23T15:04:55.493Z,3.90
2019-06-23T15:07:24.693Z,3.53
2019-06-23T15:09:53.982Z,4.10
2019-06-23T15:12:25.065Z,3.70
2019-06-23T15:14:53.912Z,3.40
2019-06-23T15:17:23.037Z,4.00
2019-06-23T15:19:52.227Z,3.60
2019-06-23T15:22:21.436Z,3.60
2019-06-23T15:24:50.715Z,3.77
2019-06-23T15:27:19.904Z,3.40
2019-06-23T15:29:49.053Z,5.17
2019-06-23T15:32:18.281Z,4.00
2019-06-23T15:34:47.558Z,3.73
2019-06-23T15:37:16.883Z,3.80
2019-06-23T15:39:46.188Z,4.43
2019-06-23T15:42:15.461Z,4.40
2019-06-23T15:44:44.642Z,4.07
2019-06-23T15:47:13.841Z,4.20
2019-06-23T15:49:43.041Z,4.20
2019-06-23T15:52:12.226Z,4.57
2019-06-23T15:54:41.382Z,4.30
2019-06-23T15:57:10.774Z,4.90
2019-06-23T15:59:39.936Z,3.80
2019-06-23T16:02:09.261Z,4.50
2019-06-23T16:04:38.408Z,4.40
2019-06-23T16:07:07.843Z,4.80
2019-06-23T16:09:37.791Z,4.03
2019-06-23T16:12:16.656Z,4.17
2019-06-23T16:14:37.832Z,4.30
2019-06-23T16:17:07.087Z,4.20
2019-06-23T16:19:36.293Z,4.57
2019-06-23T16:22:05.537Z,4.20
2019-06-23T16:24:37.020Z,4.50
2019-06-23T16:27:05.739Z,4.40
2019-06-23T16:29:34.902Z,4.57
2019-06-23T16:32:04.284Z,4.73
2019-06-23T16:34:33.506Z,4.03
2019-06-23T16:37:02.780Z,4.10
2019-06-23T16:39:32.106Z,4.60
2019-06-23T16:42:01.292Z,4.20
2019-06-23T16:44:30.504Z,4.20
2019-06-23T16:46:59.753Z,4.93
2019-06-23T16:49:28.946Z,4.27
2019-06-23T16:51:58.117Z,4.50
2019-06-23T16:54:27.262Z,5.07
2019-06-23T16:56:56.384Z,4.70
2019-06-23T16:59:25.612Z,7.30
2019-06-23T17:01:54.775Z,4.90
2019-06-23T17:04:23.942Z,4.17
2019-06-23T17:06:53.093Z,4.40
2019-06-23T17:09:22.240Z,4.90
2019-06-23T17:11:51.535Z,4.60
2019-06-23T17:14:21.914Z,3.90
2019-06-23T17:16:51.136Z,4.20
2019-06-23T17:19:20.304Z,4.43
2019-06-23T17:21:49.526Z,4.50
2019-06-23T17:24:19.476Z,5.20
2019-06-23T17:26:48.671Z,4.67
2019-06-23T17:29:17.997Z,4.20
2019-06-23T17:31:47.198Z,4.73
2019-06-23T17:34:16.444Z,5.53
2019-06-23T17:36:45.709Z,5.03
2019-06-23T17:39:15.076Z,5.00
2019-06-23T17:41:44.402Z,5.00
2019-06-23T17:44:13.730Z,4.70
2019-06-23T17:46:42.883Z,5.07
2019-06-23T17:49:12.240Z,4.70
2019-06-23T17:51:41.647Z,4.60
2019-06-23T17:54:10.896Z,5.10
2019-06-23T17:56:40.126Z,5.30
2019-06-23T17:59:09.300Z,4.37
2019-06-23T18:01:38.554Z,4.43
2019-06-23T18:04:07.789Z,5.50
2019-06-23T18:06:36.972Z,5.10
2019-06-23T18:09:07.571Z,5.20
2019-06-23T18:11:36.949Z,5.30
2019-06-23T18:14:06.262Z,4.70
2019-06-23T18:16:36.278Z,4.87
2019-06-23T18:19:05.633Z,5.13
2019-06-23T18:21:34.924Z,4.60
2019-06-23T18:24:04.190Z,4.80
2019-06-23T18:26:33.464Z,4.90
2019-06-23T18:29:02.755Z,5.23
2019-06-23T18:31:31.903Z,4.33
2019-06-23T18:34:01.125Z,5.70
2019-06-23T18:36:31.319Z,6.00
2019-06-23T18:39:00.619Z,5.70
2019-06-23T18:41:29.808Z,5.87
2019-06-23T18:43:58.962Z,5.23
2019-06-23T18:46:28.139Z,4.47
2019-06-23T18:48:57.342Z,5.00
2019-06-23T18:51:26.583Z,4.60
2019-06-23T18:53:55.874Z,4.40
2019-06-23T18:56:25.105Z,4.83
2019-06-23T18:58:54.384Z,4.80
2019-06-23T19:01:23.628Z,5.20
2019-06-23T19:03:52.950Z,5.70
2019-06-23T19:06:22.206Z,3.90
2019-06-23T19:08:51.556Z,5.57
2019-06-23T19:11:20.746Z,5.00
2019-06-23T19:13:53.823Z,5.30
2019-06-23T19:16:20.961Z,4.60
2019-06-23T19:18:50.132Z,5.23
2019-06-23T19:21:20.850Z,5.50
2019-06-23T19:23:50.093Z,4.67
2019-06-23T19:26:20.781Z,4.70
2019-06-23T19:28:50.002Z,5.73
2019-06-23T19:31:19.166Z,4.50
2019-06-23T19:33:48.392Z,5.60
2019-06-23T19:36:17.633Z,6.40
2019-06-23T19:38:46.836Z,5.20
2019-06-23T19:41:16.120Z,4.57
2019-06-23T19:43:45.382Z,4.73
2019-06-23T19:46:14.606Z,5.37
2019-06-23T19:48:43.938Z,5.43
2019-06-23T19:51:13.251Z,5.47
2019-06-23T19:53:51.623Z,5.43
2019-06-23T19:56:14.944Z,5.10
2019-06-23T19:58:45.254Z,5.97
2019-06-23T20:01:14.559Z,5.40
2019-06-23T20:03:43.844Z,5.57
2019-06-23T20:06:13.301Z,5.70
2019-06-23T20:08:42.608Z,6.67
2019-06-23T20:11:11.882Z,5.50
2019-06-23T20:13:41.137Z,6.43
2019-06-23T20:16:10.333Z,6.40
2019-06-23T20:18:39.613Z,6.10
2019-06-23T20:21:08.855Z,6.43
2019-06-23T20:23:38.033Z,6.20
2019-06-23T20:26:07.220Z,5.53
2019-06-23T20:28:36.401Z,6.73
2019-06-23T20:31:06.002Z,5.97
2019-06-23T20:33:35.271Z,5.97
2019-06-23T20:36:04.569Z,6.60
2019-06-23T20:38:33.825Z,7.60
2019-06-23T20:41:03.056Z,8.57
2019-06-23T20:43:32.346Z,8.60
2019-06-23T20:46:01.494Z,7.63
2019-06-23T20:48:30.662Z,7.57
2019-06-23T20:50:59.858Z,7.07
2019-06-23T20:53:29.254Z,7.43
2019-06-23T20:55:58.494Z,7.23
2019-06-23T20:58:27.690Z,7.23
2019-06-23T21:00:56.985Z,7.30
2019-06-23T21:03:26.196Z,6.13
2019-06-23T21:05:55.485Z,7.07
2019-06-23T21:08:24.710Z,6.90
2019-06-23T21:10:53.885Z,6.53
2019-06-23T21:13:23.153Z,6.23
2019-06-23T21:15:52.397Z,6.47
2019-06-23T21:18:23.465Z,7.43
2019-06-23T21:20:52.656Z,7.43
2019-06-23T21:23:21.958Z,7.40
2019-06-23T21:25:51.296Z,7.10
2019-06-23T21:28:20.528Z,6.70
2019-06-23T21:30:49.860Z,6.80
2019-06-23T21:33:19.114Z,6.80
2019-06-23T21:35:48.540Z,6.83
2019-06-23T21:38:17.722Z,7.53
2019-06-23T21:40:46.938Z,7.03
2019-06-23T21:43:16.122Z,6.33
2019-06-23T21:45:45.349Z,7.10
2019-06-23T21:48:14.534Z,6.80
2019-06-23T21:50:43.676Z,6.70
2019-06-23T21:53:12.837Z,7.60
2019-06-23T21:55:42.101Z,7.60
2019-06-23T21:58:11.335Z,8.03
2019-06-23T22:00:45.943Z,6.87
2019-06-23T22:03:15.253Z,7.47
2019-06-23T22:05:44.530Z,7.23
2019-06-23T22:08:13.930Z,7.00
2019-06-23T22:10:46.013Z,7.23
2019-06-23T22:13:15.185Z,7.30
2019-06-23T22:15:44.353Z,7.03
2019-06-23T22:18:13.666Z,7.90
2019-06-23T22:20:42.886Z,7.87
2019-06-23T22:23:12.098Z,7.50
2019-06-23T22:25:41.254Z,7.53
2019-06-23T22:28:10.471Z,7.47
2019-06-23T22:30:39.710Z,7.17
2019-06-23T22:33:08.883Z,8.40
2019-06-23T22:35:38.061Z,7.73
2019-06-23T22:38:07.325Z,7.07
2019-06-23T22:40:36.577Z,7.37
2019-06-23T22:43:05.830Z,7.00
2019-06-23T22:45:47.271Z,7.00
2019-06-23T22:48:06.746Z,7.23
2019-06-23T22:50:35.945Z,7.83
2019-06-23T22:53:05.194Z,8.10
2019-06-23T22:55:34.478Z,8.53
2019-06-23T22:58:03.645Z,7.80
2019-06-23T23:00:32.885Z,7.67
2019-06-23T23:03:02.045Z,8.30
2019-06-23T23:05:31.300Z,7.67
2019-06-23T23:08:01.100Z,7.90
2019-06-23T23:10:30.248Z,7.63
2019-06-23T23:12:59.401Z,7.43
2019-06-23T23:15:28.628Z,8.00
2019-06-23T23:17:57.784Z,8.57
2019-06-23T23:20:26.960Z,8.60
2019-06-23T23:22:56.108Z,8.60
2019-06-23T23:25:25.336Z,7.50
2019-06-23T23:27:54.588Z,7.80
2019-06-23T23:30:23.739Z,8.50
2019-06-23T23:32:53.065Z,7.80
2019-06-23T23:35:22.280Z,8.07
2019-06-23T23:37:51.442Z,7.67
2019-06-23T23:40:39.647Z,7.50
2019-06-23T23:43:08.817Z,8.20
2019-06-23T23:45:37.984Z,8.03
2019-06-23T23:48:07.145Z,7.87
2019-06-23T23:50:36.379Z,6.83
2019-06-23T23:53:05.523Z,6.97
2019-06-23T23:55:34.691Z,7.60
2019-06-23T23:58:05.241Z,6.90
